Time;durP1;ratioP1;P1;durP2;ratioP2;P2;SDS_P1;SDS_P2;PMS_P1;PMS_P2;Temp;Humidity;BMP_temperature;BMP_pressure;BME280_temperature;BME280_humidity;BME280_pressure;Samples;Min_cycle;Max_cycle;Signal;HPM_P1;HPM_P2
2021/10/21 00:01:36;;;;;;;13.90;5.93;;;13.80;99.90;;;;;;4993884;28;20099;-52
2021/10/21 00:04:03;;;;;;;15.13;6.28;;;13.80;99.90;;;;;;4998367;28;20438;-54
2021/10/21 00:06:28;;;;;;;15.73;6.90;;;13.70;99.90;;;;;;4994238;28;20042;-55
2021/10/21 00:08:54;;;;;;;16.77;6.50;;;13.70;99.90;;;;;;5001663;28;20058;-55
2021/10/21 00:11:19;;;;;;;13.60;6.35;;;13.70;99.90;;;;;;4995180;28;20108;-55
2021/10/21 00:13:45;;;;;;;15.45;6.57;;;13.80;99.90;;;;;;5003365;28;20050;-55
2021/10/21 00:16:11;;;;;;;20.48;6.50;;;13.80;99.90;;;;;;5005233;28;20026;-52
2021/10/21 00:18:36;;;;;;;16.48;6.53;;;13.70;99.90;;;;;;5043493;22;20563;-55
2021/10/21 00:21:02;;;;;;;14.02;6.55;;;13.70;99.90;;;;;;5038340;28;20037;-52
2021/10/21 00:23:27;;;;;;;12.93;6.10;;;13.60;99.90;;;;;;5050240;28;20045;-55
2021/10/21 00:25:53;;;;;;;16.90;6.55;;;13.70;99.90;;;;;;5048668;28;20045;-56
2021/10/21 00:28:19;;;;;;;17.70;6.55;;;13.60;99.90;;;;;;5039592;28;20038;-52
2021/10/21 00:30:45;;;;;;;13.73;5.60;;;13.60;99.90;;;;;;5024076;28;20116;-49
2021/10/21 00:33:10;;;;;;;16.55;6.40;;;13.50;99.90;;;;;;5031520;28;20048;-49
2021/10/21 00:35:36;;;;;;;13.10;6.20;;;13.60;99.90;;;;;;5031886;28;20065;-53
2021/10/21 00:38:01;;;;;;;14.63;5.95;;;13.60;99.90;;;;;;5022248;28;20030;-52
2021/10/21 00:40:27;;;;;;;15.25;7.30;;;13.50;99.90;;;;;;5023308;28;20041;-55
2021/10/21 00:42:53;;;;;;;14.98;6.88;;;13.50;99.90;;;;;;5013570;28;20387;-51
2021/10/21 00:45:18;;;;;;;19.65;7.38;;;13.50;99.90;;;;;;5026130;28;20040;-48
2021/10/21 00:47:44;;;;;;;20.48;7.53;;;13.40;99.90;;;;;;5025143;28;20041;-53
2021/10/21 00:50:09;;;;;;;17.45;7.63;;;13.50;99.90;;;;;;5032549;28;20501;-52
2021/10/21 00:52:37;;;;;;;17.05;7.50;;;13.50;99.90;;;;;;5019690;28;20137;-53
2021/10/21 00:55:03;;;;;;;14.18;7.38;;;13.60;99.90;;;;;;5024530;28;20034;-53
2021/10/21 00:57:30;;;;;;;16.48;7.80;;;13.60;99.90;;;;;;5029515;28;20044;-50
2021/10/21 00:59:56;;;;;;;12.85;7.07;;;13.50;99.90;;;;;;5027495;28;20122;-53
2021/10/21 01:02:21;;;;;;;15.75;7.28;;;13.50;99.90;;;;;;5032525;28;20536;-53
2021/10/21 01:04:47;;;;;;;25.42;8.10;;;13.50;99.90;;;;;;5028605;28;20065;-52
2021/10/21 01:07:13;;;;;;;19.48;7.32;;;13.50;99.90;;;;;;5029440;28;20033;-52
2021/10/21 01:09:42;;;;;;;16.58;6.68;;;13.60;99.90;;;;;;5015810;28;20037;-52
2021/10/21 01:12:10;;;;;;;15.07;6.63;;;13.60;99.90;;;;;;5023452;28;20340;-50
2021/10/21 01:14:36;;;;;;;13.00;7.03;;;13.50;99.90;;;;;;5032218;28;20434;-52
2021/10/21 01:17:01;;;;;;;14.55;7.13;;;13.40;99.90;;;;;;5031869;28;20291;-52
2021/10/21 01:19:27;;;;;;;10.07;5.82;;;13.40;99.90;;;;;;5016047;28;20052;-52
2021/10/21 01:21:54;;;;;;;9.57;5.32;;;13.40;99.90;;;;;;5028609;28;20037;-49
2021/10/21 01:24:21;;;;;;;9.10;5.60;;;13.40;99.90;;;;;;5029403;28;20041;-50
2021/10/21 01:26:47;;;;;;;8.20;4.30;;;13.30;99.90;;;;;;5026174;28;20044;-52
2021/10/21 01:29:14;;;;;;;9.15;4.03;;;13.40;99.90;;;;;;5031104;28;20548;-53
2021/10/21 01:31:40;;;;;;;6.35;3.45;;;13.40;99.90;;;;;;5030483;28;20101;-52
2021/10/21 01:34:08;;;;;;;7.43;3.28;;;13.40;99.90;;;;;;5024392;28;20033;-53
2021/10/21 01:36:34;;;;;;;10.55;3.45;;;13.40;99.90;;;;;;5031182;28;20092;-51
2021/10/21 01:39:00;;;;;;;9.57;3.78;;;13.40;99.90;;;;;;5022875;28;20041;-50
2021/10/21 01:41:25;;;;;;;8.05;4.13;;;13.40;99.90;;;;;;5031919;28;20090;-50
2021/10/21 01:43:51;;;;;;;9.60;4.30;;;13.40;99.90;;;;;;5026821;28;20037;-53
2021/10/21 01:46:16;;;;;;;8.77;4.18;;;13.60;99.90;;;;;;5030543;28;20044;-53
2021/10/21 01:48:42;;;;;;;8.68;4.82;;;13.50;99.90;;;;;;5031177;28;20041;-51
2021/10/21 01:51:08;;;;;;;9.43;5.22;;;13.50;99.90;;;;;;5021208;28;20034;-51
2021/10/21 01:53:34;;;;;;;9.30;4.88;;;13.50;99.90;;;;;;5020704;28;20146;-50
2021/10/21 01:55:59;;;;;;;10.82;5.05;;;13.40;99.90;;;;;;5016189;28;20179;-52
2021/10/21 01:58:25;;;;;;;11.65;4.75;;;13.40;99.90;;;;;;5021160;28;20497;-53
2021/10/21 02:00:51;;;;;;;12.85;5.30;;;13.50;99.90;;;;;;5025313;28;20049;-51
2021/10/21 02:03:16;;;;;;;10.55;5.00;;;13.50;99.90;;;;;;5025403;28;20033;-52
2021/10/21 02:05:42;;;;;;;9.60;4.75;;;13.50;99.90;;;;;;5024404;28;20044;-50
2021/10/21 02:08:07;;;;;;;10.38;4.60;;;13.50;99.90;;;;;;5030897;28;20029;-53
2021/10/21 02:10:33;;;;;;;7.32;3.65;;;13.50;99.90;;;;;;5028341;28;20041;-50
2021/10/21 02:12:58;;;;;;;5.38;2.65;;;13.50;99.90;;;;;;5023639;28;20041;-52
2021/10/21 02:15:24;;;;;;;7.38;2.00;;;13.60;99.90;;;;;;5022922;28;20038;-52
2021/10/21 02:17:49;;;;;;;8.45;1.80;;;13.50;99.90;;;;;;5020237;28;20481;-53
2021/10/21 02:20:15;;;;;;;5.55;1.42;;;13.20;99.90;;;;;;5028945;28;20124;-51
2021/10/21 02:22:41;;;;;;;4.18;1.40;;;12.90;99.90;;;;;;5026673;28;20033;-53
2021/10/21 02:25:09;;;;;;;2.58;1.10;;;12.60;99.90;;;;;;5029522;28;20340;-53
2021/10/21 02:27:35;;;;;;;3.20;1.08;;;12.60;99.90;;;;;;5028695;28;20072;-49
2021/10/21 02:30:01;;;;;;;3.60;1.20;;;12.40;99.90;;;;;;5013563;28;20490;-53
2021/10/21 02:32:26;;;;;;;3.50;1.08;;;12.30;99.90;;;;;;5024931;28;20121;-52
2021/10/21 02:34:52;;;;;;;1.20;0.70;;;12.30;99.90;;;;;;5006314;28;20045;-54
2021/10/21 02:37:18;;;;;;;3.45;1.00;;;12.20;99.90;;;;;;5022356;28;20059;-54
2021/10/21 02:39:43;;;;;;;2.60;0.90;;;12.10;99.90;;;;;;5023615;28;20050;-52
2021/10/21 02:42:09;;;;;;;2.05;0.70;;;12.00;99.90;;;;;;5024459;28;20044;-53
2021/10/21 02:44:35;;;;;;;4.28;0.90;;;12.00;99.90;;;;;;5027534;28;20124;-52
2021/10/21 02:47:00;;;;;;;3.22;0.85;;;11.90;99.90;;;;;;5029345;28;20065;-54
2021/10/21 02:49:26;;;;;;;2.45;1.00;;;11.90;99.90;;;;;;5005831;28;20488;-49
2021/10/21 02:51:51;;;;;;;3.25;1.10;;;11.80;99.90;;;;;;5021190;28;20049;-51
2021/10/21 02:54:17;;;;;;;3.42;0.90;;;11.80;99.90;;;;;;5028247;28;20076;-52
2021/10/21 02:56:43;;;;;;;5.05;0.98;;;11.80;99.90;;;;;;5022861;28;20061;-52
2021/10/21 02:59:08;;;;;;;4.95;1.55;;;11.80;99.90;;;;;;5031371;28;20037;-52
2021/10/21 03:01:34;;;;;;;3.83;1.10;;;11.70;99.90;;;;;;5024220;28;20077;-55
2021/10/21 03:03:59;;;;;;;6.85;1.50;;;11.80;99.90;;;;;;5033671;28;20499;-53
2021/10/21 03:06:25;;;;;;;6.47;1.00;;;11.80;99.90;;;;;;5026035;28;20041;-50
2021/10/21 03:08:51;;;;;;;3.45;0.95;;;11.80;99.90;;;;;;5031917;28;20145;-50
2021/10/21 03:11:16;;;;;;;4.13;1.00;;;11.80;99.90;;;;;;5028584;28;20069;-52
2021/10/21 03:13:42;;;;;;;2.63;0.95;;;11.80;99.90;;;;;;5027888;28;20123;-52
2021/10/21 03:16:07;;;;;;;6.93;1.40;;;11.80;99.90;;;;;;5025734;28;20033;-53
2021/10/21 03:18:33;;;;;;;3.80;0.93;;;11.80;99.90;;;;;;5031820;28;20037;-54
2021/10/21 03:20:59;;;;;;;5.78;1.40;;;11.80;99.90;;;;;;5032996;28;20465;-53
2021/10/21 03:23:26;;;;;;;8.43;1.48;;;11.80;99.90;;;;;;5027259;28;20037;-53
2021/10/21 03:25:52;;;;;;;2.33;1.13;;;11.80;99.90;;;;;;5029106;28;20037;-51
2021/10/21 03:28:18;;;;;;;4.68;1.30;;;11.80;99.90;;;;;;5031350;28;20033;-52
2021/10/21 03:30:43;;;;;;;4.10;0.90;;;11.80;99.90;;;;;;5033575;28;20049;-53
2021/10/21 03:33:09;;;;;;;6.35;1.25;;;11.80;99.90;;;;;;5032251;28;20056;-51
2021/10/21 03:35:35;;;;;;;8.30;1.45;;;11.90;99.90;;;;;;5027625;28;20069;-49
2021/10/21 03:38:00;;;;;;;6.40;1.27;;;11.90;99.90;;;;;;5026652;28;20040;-51
2021/10/21 03:40:26;;;;;;;4.88;1.27;;;11.90;99.90;;;;;;5028921;28;20044;-53
2021/10/21 03:42:51;;;;;;;4.47;1.23;;;11.90;99.90;;;;;;5028593;28;20038;-50
2021/10/21 03:45:17;;;;;;;2.72;0.93;;;11.90;99.90;;;;;;5025857;28;20037;-50
2021/10/21 03:47:42;;;;;;;5.43;1.45;;;11.90;99.90;;;;;;5031955;28;20034;-52
2021/10/21 03:50:08;;;;;;;3.65;1.00;;;11.80;99.90;;;;;;5032978;28;20032;-52
2021/10/21 03:52:35;;;;;;;4.97;1.52;;;11.80;99.90;;;;;;5033321;28;20048;-54
2021/10/21 03:55:01;;;;;;;7.60;1.67;;;11.80;99.90;;;;;;5033671;28;20041;-52
2021/10/21 03:57:26;;;;;;;4.97;1.00;;;11.70;99.90;;;;;;5032946;28;20509;-51
2021/10/21 03:59:52;;;;;;;5.18;1.40;;;11.70;99.90;;;;;;5031935;28;20112;-52
2021/10/21 04:02:18;;;;;;;7.63;1.35;;;11.60;99.90;;;;;;5028834;28;20049;-52
2021/10/21 04:04:43;;;;;;;9.38;1.50;;;11.60;99.90;;;;;;5033120;28;20452;-51
2021/10/21 04:07:09;;;;;;;7.50;1.48;;;11.60;99.90;;;;;;5033241;28;20090;-49
2021/10/21 04:09:35;;;;;;;6.07;1.35;;;11.50;99.90;;;;;;5031762;28;20041;-54
2021/10/21 04:12:00;;;;;;;5.53;1.35;;;11.50;99.90;;;;;;5033311;28;20041;-52
2021/10/21 04:14:26;;;;;;;5.72;1.30;;;11.40;99.90;;;;;;5031326;28;20542;-53
2021/10/21 04:16:52;;;;;;;6.18;1.40;;;11.40;99.90;;;;;;5024541;28;20029;-52
2021/10/21 04:19:17;;;;;;;4.45;1.15;;;11.40;99.90;;;;;;5031243;28;20045;-50
2021/10/21 04:21:43;;;;;;;3.72;1.45;;;11.50;99.90;;;;;;5031678;28;20116;-54
2021/10/21 04:24:08;;;;;;;2.92;0.95;;;11.40;99.90;;;;;;5026200;28;20072;-50
2021/10/21 04:26:34;;;;;;;5.47;1.30;;;11.40;99.90;;;;;;5027891;28;20038;-52
2021/10/21 04:28:59;;;;;;;4.13;1.02;;;11.30;99.90;;;;;;5028424;28;20033;-53
2021/10/21 04:31:25;;;;;;;5.97;1.40;;;11.30;99.90;;;;;;5021146;28;20049;-50
2021/10/21 04:33:50;;;;;;;4.80;1.50;;;11.20;99.90;;;;;;5027992;28;20041;-52
2021/10/21 04:36:16;;;;;;;5.72;1.40;;;11.20;99.90;;;;;;5025388;28;20029;-52
2021/10/21 04:38:41;;;;;;;7.00;1.20;;;11.20;99.90;;;;;;5028562;28;20030;-52
2021/10/21 04:41:07;;;;;;;4.85;1.20;;;11.20;99.90;;;;;;5033042;28;20029;-53
2021/10/21 04:43:33;;;;;;;7.22;1.35;;;11.20;99.90;;;;;;5030221;28;20513;-52
2021/10/21 04:45:58;;;;;;;4.72;0.98;;;11.20;99.90;;;;;;5031626;28;20180;-53
2021/10/21 04:48:24;;;;;;;4.00;0.93;;;11.20;99.90;;;;;;5032870;28;20041;-53
2021/10/21 04:50:49;;;;;;;1.75;0.70;;;11.10;99.90;;;;;;5032365;28;20057;-52
2021/10/21 04:53:15;;;;;;;2.55;0.70;;;11.10;99.90;;;;;;5032596;28;20033;-50
2021/10/21 04:55:41;;;;;;;1.48;0.65;;;11.10;99.90;;;;;;5032044;28;20120;-51
2021/10/21 04:58:06;;;;;;;2.78;0.73;;;11.10;99.90;;;;;;5031071;28;20493;-53
2021/10/21 05:00:33;;;;;;;4.40;0.90;;;11.00;99.90;;;;;;5032579;28;20045;-53
2021/10/21 05:03:10;;;;;;;2.10;0.60;;;11.00;99.90;;;;;;5030392;28;20033;-52
2021/10/21 05:05:36;;;;;;;3.88;0.70;;;11.00;99.90;;;;;;5032190;28;20091;-54
2021/10/21 05:08:03;;;;;;;3.65;0.57;;;10.90;99.90;;;;;;5031732;28;20052;-53
2021/10/21 05:10:29;;;;;;;2.05;0.70;;;10.90;99.90;;;;;;5032021;28;20389;-52
2021/10/21 05:12:55;;;;;;;2.20;0.60;;;10.90;99.90;;;;;;5011212;28;20127;-52
2021/10/21 05:15:21;;;;;;;4.43;0.57;;;10.90;99.90;;;;;;5025512;28;20553;-52
2021/10/21 05:17:46;;;;;;;2.90;0.98;;;10.90;99.90;;;;;;5012079;28;20048;-51
2021/10/21 05:20:12;;;;;;;2.75;0.90;;;10.90;99.90;;;;;;5025832;28;20029;-50
2021/10/21 05:22:38;;;;;;;2.72;0.95;;;10.90;99.90;;;;;;5031841;28;20252;-52
2021/10/21 05:25:04;;;;;;;2.38;0.60;;;10.90;99.90;;;;;;5030664;28;20033;-52
2021/10/21 05:27:30;;;;;;;1.70;0.50;;;10.80;99.90;;;;;;5030016;28;20124;-52
2021/10/21 05:29:56;;;;;;;3.80;0.68;;;10.80;99.90;;;;;;5027988;28;20478;-52
2021/10/21 05:32:21;;;;;;;4.80;0.82;;;10.70;99.90;;;;;;5029369;28;20053;-51
2021/10/21 05:34:47;;;;;;;2.97;0.55;;;10.70;99.90;;;;;;5023126;28;20360;-50
2021/10/21 05:37:14;;;;;;;2.90;0.52;;;10.60;99.90;;;;;;5025222;28;20533;-50
2021/10/21 05:39:39;;;;;;;3.58;0.77;;;10.60;99.90;;;;;;5027636;28;20048;-52
2021/10/21 05:42:05;;;;;;;4.78;1.00;;;10.60;99.90;;;;;;5030773;28;20037;-51
2021/10/21 05:44:30;;;;;;;6.07;0.98;;;10.50;99.90;;;;;;5025313;28;20137;-49
2021/10/21 05:46:56;;;;;;;4.40;0.60;;;10.50;99.90;;;;;;5028200;28;20125;-50
2021/10/21 05:49:22;;;;;;;1.83;0.60;;;10.50;99.90;;;;;;5031095;28;20065;-52
2021/10/21 05:51:48;;;;;;;3.20;0.68;;;10.50;99.90;;;;;;5023445;28;20044;-51
2021/10/21 05:54:14;;;;;;;2.13;0.90;;;10.40;99.90;;;;;;5031058;28;20056;-52
2021/10/21 05:56:39;;;;;;;1.15;0.80;;;10.40;99.90;;;;;;5027655;28;20397;-51
2021/10/21 05:59:05;;;;;;;2.75;0.77;;;10.40;99.90;;;;;;5030279;28;20410;-52
2021/10/21 06:01:31;;;;;;;3.67;0.70;;;10.30;99.90;;;;;;5024757;28;20041;-53
2021/10/21 06:03:56;;;;;;;3.90;0.60;;;10.30;99.90;;;;;;5028070;28;20047;-51
2021/10/21 06:06:22;;;;;;;3.17;0.65;;;10.30;99.90;;;;;;5027570;28;20120;-52
2021/10/21 06:08:48;;;;;;;6.53;0.98;;;10.30;99.90;;;;;;5028497;28;20387;-52
2021/10/21 06:11:13;;;;;;;5.60;0.82;;;10.30;99.90;;;;;;5024555;28;20045;-51
2021/10/21 06:13:39;;;;;;;1.75;0.80;;;10.30;99.90;;;;;;5027464;28;20026;-52
2021/10/21 06:16:06;;;;;;;3.30;0.98;;;10.40;99.90;;;;;;5029346;28;20076;-51
2021/10/21 06:18:33;;;;;;;6.13;0.65;;;10.30;99.90;;;;;;5028895;28;20065;-54
2021/10/21 06:21:05;;;;;;;4.20;0.80;;;10.40;99.90;;;;;;5026471;28;20552;-52
2021/10/21 06:23:30;;;;;;;4.13;0.70;;;10.40;99.90;;;;;;5022319;28;20037;-53
2021/10/21 06:25:56;;;;;;;4.07;0.95;;;10.40;99.90;;;;;;5024893;28;20032;-54
2021/10/21 06:28:22;;;;;;;4.25;0.98;;;10.30;99.90;;;;;;5026877;28;20458;-51
2021/10/21 06:30:47;;;;;;;7.95;0.93;;;10.30;99.90;;;;;;5026875;28;20571;-50
2021/10/21 06:33:14;;;;;;;4.47;1.00;;;10.40;99.90;;;;;;5025221;28;20087;-52
2021/10/21 06:35:43;;;;;;;6.85;2.10;;;10.40;99.90;;;;;;5029684;28;20079;-52
2021/10/21 06:38:09;;;;;;;7.13;2.65;;;10.40;99.90;;;;;;5020473;28;20088;-52
2021/10/21 06:40:34;;;;;;;10.60;4.28;;;10.40;99.90;;;;;;5026873;28;20053;-53
2021/10/21 06:43:00;;;;;;;8.27;3.20;;;10.40;99.90;;;;;;5030190;28;20124;-52
2021/10/21 06:45:25;;;;;;;7.47;2.67;;;10.40;99.90;;;;;;5029950;28;20045;-52
2021/10/21 06:47:51;;;;;;;7.80;1.80;;;10.40;99.90;;;;;;5024867;28;20041;-53
2021/10/21 06:50:17;;;;;;;6.80;2.03;;;10.40;99.90;;;;;;5026048;28;20084;-54
2021/10/21 06:52:44;;;;;;;6.40;1.13;;;10.40;99.90;;;;;;5025259;28;20121;-52
2021/10/21 06:55:12;;;;;;;6.43;1.25;;;10.40;99.90;;;;;;5013097;28;20089;-50
2021/10/21 06:57:52;;;;;;;9.27;1.27;;;10.40;99.90;;;;;;5028652;28;20067;-52
2021/10/21 07:00:18;;;;;;;6.85;1.77;;;10.50;99.90;;;;;;5027250;28;20569;-54
2021/10/21 07:02:44;;;;;;;11.35;1.80;;;10.50;99.90;;;;;;5028133;28;20029;-52
2021/10/21 07:05:11;;;;;;;10.20;1.63;;;10.50;99.90;;;;;;5027549;28;20539;-52
2021/10/21 07:07:36;;;;;;;9.95;1.77;;;10.50;99.90;;;;;;5008545;28;20048;-52
2021/10/21 07:10:05;;;;;;;7.75;2.05;;;10.60;99.90;;;;;;5025442;28;20034;-52
2021/10/21 07:12:32;;;;;;;11.73;1.70;;;10.60;99.90;;;;;;5028179;28;20480;-52
2021/10/21 07:14:59;;;;;;;7.13;1.90;;;10.60;99.90;;;;;;5028644;28;20030;-52
2021/10/21 07:17:24;;;;;;;15.82;1.70;;;10.70;99.90;;;;;;5027322;28;20090;-52
2021/10/21 07:19:50;;;;;;;10.52;1.70;;;10.70;99.90;;;;;;5028970;28;20045;-55
2021/10/21 07:22:16;;;;;;;14.20;2.40;;;10.70;99.90;;;;;;5022685;28;20090;-52
2021/10/21 07:24:43;;;;;;;15.07;2.28;;;10.70;99.90;;;;;;5026472;28;20211;-52
2021/10/21 07:27:09;;;;;;;11.63;2.35;;;10.70;99.90;;;;;;5022350;28;20157;-52
2021/10/21 07:29:35;;;;;;;11.30;2.05;;;10.70;99.90;;;;;;5029157;28;20044;-51
2021/10/21 07:32:01;;;;;;;12.65;2.25;;;10.70;99.90;;;;;;5018510;28;20513;-53
2021/10/21 07:34:27;;;;;;;11.25;1.75;;;10.70;99.90;;;;;;5024789;28;20623;-52
2021/10/21 07:36:53;;;;;;;11.13;1.52;;;10.70;99.90;;;;;;5026620;28;20061;-55
2021/10/21 07:39:21;;;;;;;8.98;1.48;;;10.80;99.90;;;;;;5027342;28;20045;-52
2021/10/21 07:41:48;;;;;;;9.65;1.70;;;10.80;99.90;;;;;;5023976;28;20453;-52
2021/10/21 07:44:13;;;;;;;7.65;1.75;;;10.80;99.90;;;;;;5025737;28;20042;-53
2021/10/21 07:46:41;;;;;;;13.15;1.92;;;10.90;99.90;;;;;;5030047;28;20623;-53
2021/10/21 07:49:07;;;;;;;13.90;2.17;;;10.90;99.90;;;;;;5024837;28;20038;-54
2021/10/21 07:51:34;;;;;;;14.32;2.50;;;11.00;99.90;;;;;;5025888;28;20037;-54
2021/10/21 07:54:00;;;;;;;16.60;2.15;;;11.00;99.90;;;;;;5031364;28;20060;-52
2021/10/21 07:56:27;;;;;;;15.82;2.28;;;11.00;99.90;;;;;;5032447;28;20494;-54
2021/10/21 07:58:53;;;;;;;9.40;2.10;;;11.00;99.90;;;;;;5027920;28;20108;-51
2021/10/21 08:01:18;;;;;;;15.70;2.13;;;11.10;99.90;;;;;;5023722;28;20110;-52
2021/10/21 08:03:44;;;;;;;12.90;2.30;;;11.10;99.90;;;;;;5024408;28;20079;-52
2021/10/21 08:06:09;;;;;;;14.10;2.00;;;11.10;99.90;;;;;;5027898;28;20087;-53
2021/10/21 08:08:35;;;;;;;9.02;1.85;;;11.10;99.90;;;;;;5026188;28;20029;-55
2021/10/21 08:11:00;;;;;;;9.32;1.73;;;11.20;99.90;;;;;;5025178;28;20391;-53
2021/10/21 08:13:26;;;;;;;6.32;1.50;;;11.20;99.90;;;;;;5026998;28;20104;-52
2021/10/21 08:15:51;;;;;;;16.80;3.15;;;11.20;99.90;;;;;;5009790;28;20636;-52
2021/10/21 08:18:17;;;;;;;17.83;3.05;;;11.20;99.90;;;;;;5028132;28;20125;-52
2021/10/21 08:20:44;;;;;;;12.88;2.13;;;11.20;99.90;;;;;;5029528;28;20037;-52
2021/10/21 08:23:10;;;;;;;12.85;2.10;;;11.30;99.90;;;;;;5027778;28;20335;-51
2021/10/21 08:25:36;;;;;;;11.40;2.13;;;11.40;99.90;;;;;;5026715;28;20060;-53
2021/10/21 08:28:02;;;;;;;11.02;2.05;;;11.50;99.90;;;;;;5021397;28;20034;-52
2021/10/21 08:30:29;;;;;;;7.32;1.60;;;11.40;99.90;;;;;;5028757;28;20038;-55
2021/10/21 08:32:57;;;;;;;10.77;2.05;;;11.50;99.90;;;;;;5029661;28;20048;-51
2021/10/21 08:35:24;;;;;;;11.93;2.03;;;11.50;99.90;;;;;;5027968;28;20030;-54
2021/10/21 08:37:50;;;;;;;12.82;5.30;;;11.50;99.90;;;;;;5027988;28;20427;-54
2021/10/21 08:40:16;;;;;;;14.95;3.83;;;11.50;99.90;;;;;;5008726;28;20132;-51
2021/10/21 08:42:44;;;;;;;7.57;1.98;;;11.50;99.90;;;;;;5022471;28;20061;-53
2021/10/21 08:45:09;;;;;;;12.75;4.72;;;11.50;99.90;;;;;;5017086;28;20410;-52
2021/10/21 08:47:40;;;;;;;13.60;2.65;;;11.40;99.90;;;;;;5028090;28;20048;-52
2021/10/21 08:50:06;;;;;;;12.05;2.40;;;11.40;99.90;;;;;;5026656;28;20037;-52
2021/10/21 08:52:35;;;;;;;9.38;2.25;;;11.30;99.90;;;;;;5027489;28;20277;-53
2021/10/21 08:55:01;;;;;;;11.20;3.03;;;11.20;99.90;;;;;;5027424;28;20038;-49
2021/10/21 08:57:27;;;;;;;10.23;1.92;;;11.20;99.90;;;;;;5018604;28;20089;-52
2021/10/21 08:59:54;;;;;;;9.95;2.35;;;11.20;99.90;;;;;;5023627;28;20053;-52
2021/10/21 09:03:07;;;;;;;10.40;2.08;;;11.20;99.90;;;;;;5027897;28;20052;-50
2021/10/21 09:05:27;;;;;;;13.95;2.20;;;11.20;99.90;;;;;;5016262;28;20037;-51
2021/10/21 09:08:22;;;;;;;13.93;2.13;;;11.30;99.90;;;;;;5025322;28;20038;-52
2021/10/21 09:10:59;;;;;;;9.80;2.25;;;11.30;99.00;;;;;;5009413;28;20053;-52
2021/10/21 09:13:26;;;;;;;7.50;1.50;;;11.30;98.40;;;;;;5026139;28;20575;-52
2021/10/21 09:15:55;;;;;;;11.02;2.08;;;11.30;98.50;;;;;;5025683;28;20029;-52
2021/10/21 09:18:40;;;;;;;9.10;1.63;;;11.30;98.40;;;;;;5023499;28;20080;-54
2021/10/21 09:21:05;;;;;;;10.25;1.50;;;11.20;98.50;;;;;;5030045;28;20064;-52
2021/10/21 09:23:31;;;;;;;7.90;1.65;;;11.20;98.90;;;;;;5026848;28;20045;-52
2021/10/21 09:26:09;;;;;;;11.50;1.45;;;11.20;99.40;;;;;;5028819;28;20168;-53
2021/10/21 09:28:35;;;;;;;4.70;0.77;;;11.30;99.60;;;;;;5024279;28;20034;-52
2021/10/21 09:31:05;;;;;;;3.78;0.77;;;11.30;99.90;;;;;;5025732;28;20520;-54
2021/10/21 09:33:44;;;;;;;4.00;0.55;;;11.30;99.90;;;;;;5027587;28;20045;-51
2021/10/21 09:36:10;;;;;;;2.35;0.55;;;11.30;99.90;;;;;;5025630;28;20034;-54
2021/10/21 09:38:45;;;;;;;4.65;0.68;;;11.20;99.90;;;;;;5025193;28;20038;-52
2021/10/21 09:41:19;;;;;;;3.38;0.50;;;11.10;99.90;;;;;;5027469;28;20065;-52
2021/10/21 09:43:46;;;;;;;6.82;2.50;;;11.10;99.90;;;;;;5012314;28;20080;-55
2021/10/21 09:46:41;;;;;;;2.50;0.65;;;11.10;99.90;;;;;;5029367;28;20033;-51
2021/10/21 09:49:34;;;;;;;3.42;1.40;;;11.10;99.90;;;;;;5009196;28;20034;-52
2021/10/21 09:52:01;;;;;;;3.78;2.05;;;11.10;99.90;;;;;;5026550;28;20064;-52
2021/10/21 09:54:28;;;;;;;6.40;2.58;;;11.00;99.90;;;;;;5029208;28;20502;-52
2021/10/21 09:56:56;;;;;;;3.03;1.08;;;11.00;99.90;;;;;;5029057;28;20038;-54
2021/10/21 09:59:29;;;;;;;2.15;0.70;;;11.00;99.90;;;;;;5026675;28;20068;-52
2021/10/21 10:02:05;;;;;;;3.70;2.58;;;11.00;99.90;;;;;;5026502;28;20038;-52
2021/10/21 10:04:31;;;;;;;5.38;3.08;;;11.00;99.90;;;;;;5028112;28;20041;-54
2021/10/21 10:06:59;;;;;;;4.00;3.22;;;11.00;99.90;;;;;;5028686;28;20405;-52
2021/10/21 10:09:32;;;;;;;4.03;0.70;;;10.90;99.90;;;;;;5029525;28;20086;-53
2021/10/21 10:12:02;;;;;;;4.90;0.70;;;10.80;99.90;;;;;;5022457;28;20414;-52
2021/10/21 10:14:27;;;;;;;5.88;2.67;;;10.80;99.90;;;;;;5028906;28;20046;-52
2021/10/21 10:16:53;;;;;;;10.07;3.88;;;10.70;99.90;;;;;;5026228;28;20512;-54
2021/10/21 10:19:19;;;;;;;5.03;1.30;;;10.70;99.90;;;;;;5028894;28;20140;-53
2021/10/21 10:21:51;;;;;;;5.00;3.13;;;10.60;99.90;;;;;;5025693;28;20121;-52
2021/10/21 10:24:17;;;;;;;7.22;4.45;;;10.50;99.90;;;;;;5029836;28;20095;-51
2021/10/21 10:26:49;;;;;;;8.13;3.05;;;10.50;99.90;;;;;;5028730;28;20068;-52
2021/10/21 10:29:31;;;;;;;3.15;0.85;;;10.50;99.90;;;;;;5028497;28;20033;-52
2021/10/21 10:32:01;;;;;;;4.78;3.30;;;10.30;99.90;;;;;;5026079;28;20041;-54
2021/10/21 10:34:32;;;;;;;1.15;0.52;;;10.20;99.90;;;;;;5028262;28;20197;-53
2021/10/21 10:37:13;;;;;;;0.82;0.30;;;10.10;99.90;;;;;;5027212;28;20524;-49
2021/10/21 10:39:51;;;;;;;3.65;1.75;;;10.00;99.90;;;;;;5022670;28;20112;-49
2021/10/21 10:42:37;;;;;;;3.55;2.55;;;10.00;99.90;;;;;;5025516;28;20491;-50
2021/10/21 10:45:10;;;;;;;3.83;1.15;;;10.00;99.90;;;;;;5022005;28;20219;-52
2021/10/21 10:47:50;;;;;;;3.25;1.00;;;10.00;99.90;;;;;;5024838;28;20050;-52
2021/10/21 10:50:41;;;;;;;5.22;3.17;;;10.00;99.90;;;;;;5008889;28;20510;-52
2021/10/21 10:53:07;;;;;;;7.18;2.95;;;10.00;99.90;;;;;;5012767;28;20068;-50
2021/10/21 10:55:43;;;;;;;2.67;1.02;;;10.00;99.90;;;;;;5028204;28;20144;-52
2021/10/21 10:58:23;;;;;;;3.13;2.05;;;10.10;99.90;;;;;;5008100;28;20042;-52
2021/10/21 11:00:54;;;;;;;4.03;2.13;;;10.10;99.90;;;;;;5024355;28;20045;-53
2021/10/21 11:03:42;;;;;;;5.63;1.95;;;10.10;99.90;;;;;;5025416;28;20098;-52
2021/10/21 11:06:15;;;;;;;4.20;1.98;;;10.20;99.90;;;;;;5022673;28;20120;-51
2021/10/21 11:08:47;;;;;;;3.40;1.40;;;10.20;99.90;;;;;;5024391;28;20080;-50
2021/10/21 11:11:40;;;;;;;5.40;2.00;;;10.20;99.90;;;;;;5025614;28;20137;-55
2021/10/21 11:14:16;;;;;;;4.28;2.25;;;10.20;99.90;;;;;;5025778;28;20029;-50
2021/10/21 11:16:50;;;;;;;4.38;2.30;;;10.20;99.90;;;;;;5006274;28;20108;-53
2021/10/21 11:19:39;;;;;;;7.22;3.00;;;10.20;99.90;;;;;;5029672;28;20065;-52
2021/10/21 11:22:05;;;;;;;7.80;2.33;;;10.20;99.90;;;;;;5022378;28;20061;-52
2021/10/21 11:24:43;;;;;;;5.38;1.40;;;10.10;99.90;;;;;;5011527;28;20486;-52
2021/10/21 11:27:10;;;;;;;7.40;1.20;;;10.10;99.90;;;;;;5031624;28;20045;-53
2021/10/21 11:29:36;;;;;;;8.02;1.02;;;10.10;99.90;;;;;;5029524;28;20037;-52
2021/10/21 11:32:05;;;;;;;4.78;1.58;;;10.10;99.90;;;;;;5026515;28;20041;-52
2021/10/21 11:34:31;;;;;;;7.38;1.20;;;10.10;99.90;;;;;;5029396;28;20041;-51
2021/10/21 11:36:57;;;;;;;4.15;1.23;;;10.10;99.90;;;;;;5022096;28;20053;-54
2021/10/21 11:39:34;;;;;;;8.40;2.20;;;10.10;99.90;;;;;;5025699;28;20533;-53
2021/10/21 11:42:08;;;;;;;8.43;1.42;;;10.10;99.90;;;;;;5029688;28;20045;-52
2021/10/21 11:44:35;;;;;;;8.82;2.80;;;10.20;99.90;;;;;;5022271;28;20089;-54
2021/10/21 11:47:04;;;;;;;6.15;1.40;;;10.20;99.90;;;;;;5024255;28;20041;-52
2021/10/21 11:49:33;;;;;;;5.43;1.42;;;10.20;99.90;;;;;;5025805;28;20503;-52
2021/10/21 11:52:06;;;;;;;8.68;1.63;;;10.20;99.90;;;;;;5025811;28;20041;-53
2021/10/21 11:54:33;;;;;;;7.28;1.33;;;10.20;99.90;;;;;;5028180;28;20052;-53
2021/10/21 11:56:59;;;;;;;11.02;1.52;;;10.20;99.90;;;;;;5030772;28;20128;-52
2021/10/21 11:59:39;;;;;;;7.55;1.83;;;10.30;99.90;;;;;;5028520;28;20132;-52
2021/10/21 12:02:10;;;;;;;7.32;1.40;;;10.30;99.90;;;;;;5026203;28;20482;-52
2021/10/21 12:04:36;;;;;;;5.57;1.40;;;10.30;99.90;;;;;;5033055;28;20044;-52
2021/10/21 12:07:04;;;;;;;9.27;1.92;;;10.40;99.90;;;;;;5021403;28;20044;-53
2021/10/21 12:09:36;;;;;;;11.68;2.30;;;10.40;99.90;;;;;;5027130;28;20045;-53
2021/10/21 12:12:07;;;;;;;11.13;1.85;;;10.40;99.90;;;;;;5023188;28;20425;-53
2021/10/21 12:14:34;;;;;;;7.50;1.65;;;10.30;99.90;;;;;;5032889;28;20049;-53
2021/10/21 12:17:00;;;;;;;9.52;1.85;;;10.20;99.90;;;;;;5031557;28;20108;-53
2021/10/21 12:19:28;;;;;;;9.68;1.55;;;10.20;99.90;;;;;;5044284;22;20124;-52
2021/10/21 12:22:16;;;;;;;10.00;2.33;;;10.20;99.90;;;;;;5018928;28;20042;-51
2021/10/21 12:24:43;;;;;;;8.80;1.50;;;10.20;99.90;;;;;;5011216;28;20124;-49
2021/10/21 12:27:09;;;;;;;10.48;2.55;;;10.20;99.90;;;;;;5022783;28;20037;-49
2021/10/21 12:29:43;;;;;;;9.32;1.77;;;10.20;99.90;;;;;;5025848;28;20041;-50
2021/10/21 12:32:10;;;;;;;11.30;1.42;;;10.10;99.90;;;;;;5013705;28;20133;-50
2021/10/21 12:34:36;;;;;;;12.35;1.73;;;10.10;99.90;;;;;;5008820;28;20034;-51
2021/10/21 12:37:07;;;;;;;8.82;1.60;;;10.10;99.90;;;;;;5009150;28;20041;-50
2021/10/21 12:39:34;;;;;;;12.65;1.83;;;10.10;99.90;;;;;;5006598;28;20387;-50
2021/10/21 12:42:02;;;;;;;10.05;2.10;;;10.10;99.90;;;;;;5003336;28;20030;-50
2021/10/21 12:44:31;;;;;;;6.18;1.08;;;10.10;99.90;;;;;;4997664;28;20042;-50
2021/10/21 12:47:25;;;;;;;8.27;0.98;;;10.00;99.90;;;;;;5008492;28;20052;-51